Time;durP1;ratioP1;P1;durP2;ratioP2;P2;SDS_P1;SDS_P2;PMS_P1;PMS_P2;Temp;Humidity;BMP_temperature;BMP_pressure;BME280_temperature;BME280_humidity;BME280_pressure;Samples;Min_cycle;Max_cycle;Signal;HPM_P1;HPM_P2
2021/06/30 00:01:57;;;;;;;12.85;8.60;;;;;;;16.05;100.00;99924.81;4977257;28;20053;-79
2021/06/30 00:04:23;;;;;;;21.75;11.98;;;;;;;16.07;100.00;99915.09;4977543;28;20165;-79
2021/06/30 00:06:48;;;;;;;29.95;12.93;;;;;;;16.20;100.00;99915.31;4959765;28;20037;-79
2021/06/30 00:09:16;;;;;;;30.65;13.60;;;;;;;16.23;100.00;99913.41;4977127;28;20494;-79
2021/06/30 00:11:41;;;;;;;59.58;15.85;;;;;;;16.16;100.00;99913.78;4977382;28;20105;-79
2021/06/30 00:14:06;;;;;;;35.53;15.55;;;;;;;16.21;100.00;99901.31;4977442;28;20136;-79
2021/06/30 00:16:32;;;;;;;59.35;17.50;;;;;;;16.17;100.00;99900.63;4958427;28;20035;-79
2021/06/30 00:18:59;;;;;;;38.50;16.45;;;;;;;16.18;100.00;99893.63;4959846;28;20038;-79
2021/06/30 00:21:26;;;;;;;50.28;15.10;;;;;;;16.12;100.00;99897.41;4959604;28;20408;-79
2021/06/30 00:23:51;;;;;;;29.40;15.68;;;;;;;16.09;100.00;99885.31;4977018;28;20554;-79
2021/06/30 00:26:16;;;;;;;22.98;14.68;;;;;;;16.10;100.00;99884.41;4959403;28;20058;-79
2021/06/30 00:28:41;;;;;;;19.33;15.43;;;;;;;16.10;100.00;99880.91;4977193;28;20455;-79
2021/06/30 00:31:07;;;;;;;18.50;14.65;;;;;;;16.02;100.00;99883.09;4977141;28;20029;-79
2021/06/30 00:33:32;;;;;;;17.73;14.65;;;;;;;15.98;100.00;99887.66;4976830;28;20038;-79
2021/06/30 00:36:01;;;;;;;19.67;14.80;;;;;;;15.95;100.00;99879.09;4959538;28;20031;-79
2021/06/30 00:38:26;;;;;;;18.92;15.85;;;;;;;15.87;100.00;99869.88;5000130;23;20043;-90
2021/06/30 00:40:51;;;;;;;20.92;15.65;;;;;;;15.94;100.00;99862.56;4961787;28;20038;-90
2021/06/30 00:43:18;;;;;;;18.65;15.40;;;;;;;15.99;100.00;99859.72;4961501;28;20039;-90
2021/06/30 00:45:44;;;;;;;24.98;16.58;;;;;;;15.96;100.00;99860.72;4960755;28;20513;-90
2021/06/30 00:48:10;;;;;;;34.60;18.15;;;;;;;15.96;100.00;99852.88;4961146;28;20026;-90
2021/06/30 00:50:36;;;;;;;29.00;17.75;;;;;;;15.94;100.00;99844.25;4960288;28;20088;-90
2021/06/30 00:53:01;;;;;;;66.70;18.63;;;;;;;15.91;100.00;99843.56;4961259;28;20093;-90
2021/06/30 00:55:26;;;;;;;54.35;18.73;;;;;;;15.87;100.00;99848.13;4961028;28;20031;-90
2021/06/30 00:57:51;;;;;;;34.83;17.42;;;;;;;15.85;100.00;99847.34;4960654;28;20049;-91
2021/06/30 01:00:17;;;;;;;27.42;17.88;;;;;;;15.82;100.00;99845.72;4960732;28;20027;-90
2021/06/30 01:02:43;;;;;;;32.55;17.90;;;;;;;15.89;100.00;99851.50;4961275;28;20435;-90
2021/06/30 01:05:09;;;;;;;28.67;18.52;;;;;;;15.90;100.00;99853.19;4960864;28;20027;-90
2021/06/30 01:07:34;;;;;;;24.20;16.88;;;;;;;15.85;100.00;99839.50;4960565;28;20093;-90
2021/06/30 01:10:00;;;;;;;25.98;17.45;;;;;;;15.94;100.00;99848.66;4960759;28;20030;-90
2021/06/30 01:12:25;;;;;;;22.42;16.50;;;;;;;15.92;100.00;99847.88;4960610;28;20109;-90
2021/06/30 01:14:50;;;;;;;22.38;16.17;;;;;;;15.97;100.00;99851.94;4961020;28;20023;-90
2021/06/30 01:17:16;;;;;;;26.10;16.60;;;;;;;15.92;100.00;99848.75;4960380;28;20022;-90
2021/06/30 01:19:41;;;;;;;28.83;16.50;;;;;;;15.92;100.00;99855.72;4961001;28;20479;-90
2021/06/30 01:22:07;;;;;;;25.10;16.08;;;;;;;15.82;100.00;99852.72;4960340;28;20033;-90
2021/06/30 01:24:34;;;;;;;31.35;15.02;;;;;;;15.86;100.00;99855.13;4960732;28;20023;-90
2021/06/30 01:26:59;;;;;;;21.52;15.35;;;;;;;15.85;100.00;99858.66;4960382;28;20109;-90
2021/06/30 01:29:24;;;;;;;23.65;14.10;;;;;;;15.81;100.00;99857.13;4961147;28;20371;-90
2021/06/30 01:31:51;;;;;;;19.75;14.43;;;;;;;15.74;100.00;99863.59;4960643;28;20026;-89
2021/06/30 01:34:18;;;;;;;26.38;14.30;;;;;;;15.67;100.00;99859.59;4960016;28;20035;-89
2021/06/30 01:36:48;;;;;;;37.00;14.45;;;;;;;15.70;100.00;99858.59;4960041;28;20046;-90
2021/06/30 01:39:16;;;;;;;55.90;13.93;;;;;;;15.72;100.00;99857.59;4960801;28;20031;-89
2021/06/30 01:41:42;;;;;;;29.10;13.38;;;;;;;15.78;100.00;99853.81;4961525;28;20487;-89
2021/06/30 01:44:07;;;;;;;47.17;15.00;;;;;;;15.76;100.00;99853.88;4962319;28;20042;-89
2021/06/30 01:46:33;;;;;;;79.57;15.55;;;;;;;15.72;100.00;99857.59;4960673;28;20086;-89
2021/06/30 01:48:59;;;;;;;24.83;15.52;;;;;;;15.77;100.00;99850.38;4961611;28;20077;-89
2021/06/30 01:51:24;;;;;;;67.50;15.93;;;;;;;15.77;100.00;99865.22;4961921;28;20023;-89
2021/06/30 01:53:54;;;;;;;119.03;16.95;;;;;;;15.75;100.00;99865.28;4962043;28;20023;-90
2021/06/30 01:56:28;;;;;;;55.13;16.60;;;;;;;15.78;100.00;99862.50;4961121;28;20027;-90
2021/06/30 01:59:13;;;;;;;85.07;15.63;;;;;;;15.77;100.00;99871.28;4962506;28;20030;-90
2021/06/30 02:01:40;;;;;;;36.03;16.55;;;;;;;15.83;100.00;99870.97;4962117;28;20027;-89
2021/06/30 02:04:07;;;;;;;93.55;18.30;;;;;;;15.81;100.00;99867.56;4962357;28;20538;-89
2021/06/30 02:06:41;;;;;;;30.80;16.73;;;;;;;15.93;100.00;99871.34;4962136;28;20054;-89
2021/06/30 02:09:07;;;;;;;;;;;;;;;15.97;100.00;99870.25;4962460;28;20037;-90
2021/06/30 02:11:33;;;;;;;23.85;16.05;;;;;;;16.04;100.00;99862.94;4961827;28;20267;-90
2021/06/30 02:13:59;;;;;;;57.45;18.23;;;;;;;16.03;100.00;99866.47;4963330;28;20126;-90
2021/06/30 02:16:24;;;;;;;78.63;19.05;;;;;;;16.04;100.00;99860.31;4963114;28;20463;-90
2021/06/30 02:18:49;;;;;;;311.08;24.33;;;;;;;15.99;100.00;99859.72;4963964;28;20117;-90
2021/06/30 02:21:15;;;;;;;50.05;17.58;;;;;;;16.06;100.00;99861.09;4962638;28;20038;-89
2021/06/30 02:23:41;;;;;;;46.53;18.35;;;;;;;16.09;100.00;99872.22;4960696;28;20025;-90
2021/06/30 02:26:06;;;;;;;48.03;18.60;;;;;;;16.14;100.00;99872.00;4961563;28;20026;-90
2021/06/30 02:28:32;;;;;;;32.83;17.05;;;;;;;16.15;100.00;99878.91;4962092;28;20461;-90
2021/06/30 02:30:58;;;;;;;56.13;19.65;;;;;;;16.15;100.00;99873.69;4962579;28;20019;-90
2021/06/30 02:33:24;;;;;;;47.78;18.90;;;;;;;16.12;100.00;99866.00;4960354;28;20403;-90
2021/06/30 02:35:49;;;;;;;80.15;19.10;;;;;;;16.18;100.00;99870.91;4960342;28;20047;-90
2021/06/30 02:38:15;;;;;;;47.20;18.65;;;;;;;16.24;100.00;99865.34;4960230;28;20033;-90
2021/06/30 02:40:41;;;;;;;46.20;19.05;;;;;;;16.26;100.00;99866.13;4963945;28;20033;-90
2021/06/30 02:43:06;;;;;;;50.67;20.40;;;;;;;16.24;100.00;99867.97;4964943;28;20031;-90
2021/06/30 02:45:32;;;;;;;36.50;20.40;;;;;;;16.23;100.00;99866.28;4964663;28;20030;-90
2021/06/30 02:47:57;;;;;;;30.75;19.63;;;;;;;16.29;100.00;99868.59;4964078;28;20058;-90
2021/06/30 02:50:23;;;;;;;33.03;20.63;;;;;;;16.34;100.00;99866.56;4964054;28;20091;-90
2021/06/30 02:52:50;;;;;;;34.85;20.83;;;;;;;16.37;100.00;99855.06;4964306;28;20027;-90
2021/06/30 02:55:16;;;;;;;30.95;21.40;;;;;;;16.41;100.00;99847.91;4964306;28;20386;-90
2021/06/30 02:57:43;;;;;;;33.17;21.92;;;;;;;16.41;100.00;99851.38;4963782;28;20022;-91
2021/06/30 03:00:13;;;;;;;33.60;21.63;;;;;;;16.41;100.00;99842.66;4963657;28;20023;-90
2021/06/30 03:02:38;;;;;;;33.03;22.33;;;;;;;16.39;100.00;99841.94;4963824;28;20022;-90
2021/06/30 03:05:05;;;;;;;33.38;23.10;;;;;;;16.45;100.00;99838.97;4963310;28;20549;-91
2021/06/30 03:07:31;;;;;;;31.17;22.20;;;;;;;16.41;100.00;99846.16;4963353;28;20413;-91
2021/06/30 03:09:56;;;;;;;31.30;24.20;;;;;;;16.48;100.00;99851.91;4967988;28;20027;-90
2021/06/30 03:12:21;;;;;;;31.02;23.38;;;;;;;16.49;100.00;99848.34;4964507;28;20082;-90
2021/06/30 03:14:47;;;;;;;27.73;22.25;;;;;;;16.51;100.00;99841.25;4963861;28;20082;-91
2021/06/30 03:17:12;;;;;;;31.88;23.48;;;;;;;16.51;100.00;99846.50;4963430;28;20109;-91
2021/06/30 03:19:37;;;;;;;37.67;24.52;;;;;;;16.49;100.00;99846.56;4962594;28;20027;-91
2021/06/30 03:22:03;;;;;;;32.17;24.35;;;;;;;16.55;100.00;99840.16;4962512;28;20074;-91
2021/06/30 03:24:28;;;;;;;31.27;24.13;;;;;;;16.56;100.00;99849.69;4962614;28;20117;-90
2021/06/30 03:26:54;;;;;;;37.28;25.08;;;;;;;16.53;100.00;99842.88;4962364;28;20046;-91
2021/06/30 03:29:19;;;;;;;36.00;24.67;;;;;;;16.68;100.00;99842.94;4962291;28;20085;-91
2021/06/30 03:31:46;;;;;;;32.72;24.92;;;;;;;16.72;100.00;99847.94;4962808;28;20084;-90
2021/06/30 03:34:11;;;;;;;32.50;24.65;;;;;;;16.78;100.00;99852.88;4962563;28;20023;-90
2021/06/30 03:36:37;;;;;;;33.53;24.38;;;;;;;16.83;100.00;99857.00;4962615;28;20364;-91
2021/06/30 03:39:02;;;;;;;37.92;25.70;;;;;;;16.76;100.00;99857.34;4962636;28;20034;-90
2021/06/30 03:41:27;;;;;;;32.95;24.92;;;;;;;16.82;100.00;99860.56;4962388;28;20023;-90
2021/06/30 03:43:53;;;;;;;35.72;26.33;;;;;;;16.84;100.00;99858.69;4963185;28;20030;-90
2021/06/30 03:46:18;;;;;;;38.47;28.75;;;;;;;16.85;100.00;99849.91;4962715;28;20486;-90
2021/06/30 03:48:43;;;;;;;37.42;26.88;;;;;;;16.88;100.00;99861.06;4962912;28;20027;-90
2021/06/30 03:51:09;;;;;;;39.72;28.10;;;;;;;16.92;100.00;99866.97;4962639;28;20019;-90
2021/06/30 03:53:34;;;;;;;37.90;28.08;;;;;;;16.95;100.00;99856.31;4962809;28;20113;-90
2021/06/30 03:55:59;;;;;;;37.88;27.67;;;;;;;16.98;100.00;99853.53;4962321;28;20027;-90
2021/06/30 03:58:25;;;;;;;40.17;29.05;;;;;;;16.99;100.00;99863.06;4962695;28;20023;-90
2021/06/30 04:00:50;;;;;;;37.92;29.83;;;;;;;17.01;100.00;99861.22;4963329;28;20027;-90
2021/06/30 04:03:18;;;;;;;35.63;28.60;;;;;;;17.01;100.00;99856.81;4962675;28;20506;-90
2021/06/30 04:05:45;;;;;;;39.40;28.85;;;;;;;17.00;100.00;99855.16;4962264;28;20027;-90
2021/06/30 04:08:10;;;;;;;36.75;29.20;;;;;;;17.08;100.00;99856.47;4962666;28;20117;-90
2021/06/30 04:10:36;;;;;;;35.40;27.90;;;;;;;17.09;100.00;99864.28;4962307;28;20110;-90
2021/06/30 04:13:04;;;;;;;38.40;30.63;;;;;;;17.09;100.00;99864.28;4962003;28;20027;-90
2021/06/30 04:15:30;;;;;;;37.00;28.52;;;;;;;17.17;100.00;99866.44;4962178;28;20038;-90
2021/06/30 04:17:58;;;;;;;36.65;29.40;;;;;;;17.16;100.00;99857.75;4961648;28;20158;-90
2021/06/30 04:20:23;;;;;;;36.08;29.17;;;;;;;17.17;100.00;99853.34;4961739;28;20105;-91
2021/06/30 04:22:48;;;;;;;37.30;28.52;;;;;;;17.19;100.00;99856.72;4962232;28;20022;-91
2021/06/30 04:25:14;;;;;;;36.13;29.10;;;;;;;17.28;100.00;99865.84;4962776;28;20037;-90
2021/06/30 04:27:39;;;;;;;35.83;29.15;;;;;;;17.32;100.00;99864.72;4963390;28;20027;-90
2021/06/30 04:30:07;;;;;;;37.03;28.40;;;;;;;17.34;100.00;99858.47;4962949;28;20034;-90
2021/06/30 04:32:32;;;;;;;38.80;28.85;;;;;;;17.38;100.00;99856.50;4962702;28;20121;-90
2021/06/30 04:34:58;;;;;;;36.58;27.45;;;;;;;17.35;100.00;99854.06;4962637;28;20062;-91
2021/06/30 04:37:23;;;;;;;34.58;28.58;;;;;;;17.49;100.00;99856.75;4961515;28;20125;-90
2021/06/30 04:39:48;;;;;;;37.63;28.95;;;;;;;17.53;100.00;99860.03;4961259;28;20031;-90
2021/06/30 04:42:14;;;;;;;33.97;28.67;;;;;;;17.52;100.00;99859.19;4961510;28;20034;-90
2021/06/30 04:44:39;;;;;;;37.63;28.55;;;;;;;17.52;100.00;99853.94;4960468;28;20034;-90
2021/06/30 04:47:04;;;;;;;37.70;29.00;;;;;;;17.46;100.00;99854.31;4961278;28;20023;-90
2021/06/30 04:49:30;;;;;;;33.60;28.20;;;;;;;17.53;100.00;99855.63;4961198;28;20105;-90
2021/06/30 04:51:55;;;;;;;36.95;29.88;;;;;;;17.47;100.00;99853.34;4960838;28;20055;-90
2021/06/30 04:54:22;;;;;;;35.25;28.95;;;;;;;17.59;100.00;99855.25;4962753;28;20026;-90
2021/06/30 04:56:47;;;;;;;36.00;28.63;;;;;;;17.62;100.00;99854.25;4961922;28;20035;-90
2021/06/30 04:59:13;;;;;;;35.92;29.40;;;;;;;17.72;100.00;99855.38;4960433;28;20455;-90
2021/06/30 05:01:38;;;;;;;34.75;29.05;;;;;;;17.66;100.00;99861.81;4960367;28;20034;-90
2021/06/30 05:04:03;;;;;;;34.55;28.70;;;;;;;17.67;100.00;99860.03;4958855;28;20034;-90
2021/06/30 05:06:29;;;;;;;37.83;27.88;;;;;;;17.65;100.00;99868.03;4959931;28;20026;-90
2021/06/30 05:08:54;;;;;;;38.55;29.88;;;;;;;17.70;100.00;99871.22;4959848;28;20113;-90
2021/06/30 05:11:19;;;;;;;37.30;28.52;;;;;;;17.80;100.00;99875.97;4959479;28;20394;-90
2021/06/30 05:13:45;;;;;;;34.38;27.17;;;;;;;17.90;100.00;99877.94;4959737;28;20113;-90
2021/06/30 05:16:10;;;;;;;34.75;27.00;;;;;;;17.90;100.00;99877.09;4959665;28;20018;-90
2021/06/30 05:18:36;;;;;;;34.72;26.35;;;;;;;17.85;100.00;99873.88;4959773;28;20027;-90
2021/06/30 05:21:01;;;;;;;33.08;26.85;;;;;;;17.91;100.00;99876.16;4958917;28;20025;-90
2021/06/30 05:23:27;;;;;;;33.78;26.58;;;;;;;17.85;100.00;99876.50;4958829;28;20051;-90
2021/06/30 05:25:52;;;;;;;31.25;26.45;;;;;;;17.76;100.00;99864.75;4958861;28;20023;-89
2021/06/30 05:28:17;;;;;;;31.20;25.58;;;;;;;17.85;100.00;99861.63;4960345;28;20118;-89
2021/06/30 05:30:43;;;;;;;33.13;24.77;;;;;;;17.84;100.00;99857.31;4960506;28;20426;-89
2021/06/30 05:33:08;;;;;;;29.83;25.00;;;;;;;17.91;100.00;99861.25;4959041;28;20537;-90
2021/06/30 05:35:33;;;;;;;33.15;25.27;;;;;;;18.01;100.00;99852.81;4959071;28;20047;-90
2021/06/30 05:42:16;;;;;;;31.30;25.05;;;;;;;18.11;100.00;99848.72;4977485;28;20061;-86
2021/06/30 06:45:25;;;;;;;29.08;22.75;;;;;;;18.66;100.00;99865.44;4953522;29;20051;-77
2021/06/30 06:47:50;;;;;;;29.20;22.85;;;;;;;18.71;100.00;99864.22;4954811;29;20046;-77
2021/06/30 06:50:15;;;;;;;29.50;22.67;;;;;;;18.70;100.00;99867.81;4953527;29;20502;-77
2021/06/30 06:52:40;;;;;;;24.13;20.58;;;;;;;18.88;100.00;99867.63;4954711;28;20031;-77
2021/06/30 06:55:10;;;;;;;26.17;21.92;;;;;;;18.74;100.00;99863.22;4955049;29;20027;-77
2021/06/30 06:57:36;;;;;;;26.55;22.40;;;;;;;18.46;100.00;99864.94;4937617;29;20111;-77
2021/06/30 07:00:03;;;;;;;23.38;20.48;;;;;;;18.59;100.00;99863.22;4954765;29;20452;-77
2021/06/30 07:02:28;;;;;;;24.23;21.50;;;;;;;18.73;100.00;99869.44;4938038;29;20070;-77
2021/06/30 07:04:53;;;;;;;24.23;21.20;;;;;;;18.84;100.00;99869.56;4955181;29;20051;-78
2021/06/30 07:07:19;;;;;;;23.35;20.50;;;;;;;19.26;100.00;99865.97;4939428;29;20058;-78
2021/06/30 07:09:44;;;;;;;21.05;18.48;;;;;;;19.39;100.00;99875.69;4938177;29;20023;-78
2021/06/30 07:12:09;;;;;;;25.23;17.83;;;;;;;19.28;100.00;99866.72;4954703;28;20026;-79
2021/06/30 07:14:35;;;;;;;20.02;17.70;;;;;;;19.17;100.00;99877.09;4955928;29;20082;-79
2021/06/30 07:17:00;;;;;;;19.27;16.67;;;;;;;19.01;100.00;99879.88;4955427;29;20058;-79
2021/06/30 07:19:25;;;;;;;24.67;18.02;;;;;;;18.94;100.00;99877.75;4955510;29;20043;-79
2021/06/30 07:21:50;;;;;;;22.33;18.17;;;;;;;18.86;100.00;99879.06;4955590;29;20027;-79
2021/06/30 07:24:16;;;;;;;20.92;18.02;;;;;;;18.76;100.00;99879.75;4955520;28;20274;-79
2021/06/30 07:26:41;;;;;;;19.55;17.45;;;;;;;18.86;100.00;99889.56;4939882;29;20369;-78
2021/06/30 07:29:09;;;;;;;19.67;17.10;;;;;;;19.01;100.00;99889.53;4941844;29;20027;-78
2021/06/30 07:31:35;;;;;;;21.90;18.05;;;;;;;18.97;100.00;99895.94;4958650;29;20119;-79
2021/06/30 07:34:00;;;;;;;18.75;16.05;;;;;;;19.22;100.00;99885.53;4958508;28;20023;-79
2021/06/30 07:36:26;;;;;;;17.98;14.60;;;;;;;19.59;100.00;99890.16;4958310;29;20027;-79
2021/06/30 07:38:51;;;;;;;18.00;13.27;;;;;;;19.67;100.00;99887.88;4941045;29;20031;-79
2021/06/30 07:41:16;;;;;;;16.95;13.00;;;;;;;19.90;100.00;99897.72;4940765;29;20027;-79
2021/06/30 07:43:41;;;;;;;18.10;13.80;;;;;;;20.02;100.00;99901.31;4958141;28;20558;-79
2021/06/30 07:46:07;;;;;;;17.63;14.30;;;;;;;20.12;100.00;99896.25;4958537;29;20039;-79
2021/06/30 07:48:32;;;;;;;17.02;14.50;;;;;;;19.81;100.00;99897.50;4958119;29;20487;-79
2021/06/30 07:50:57;;;;;;;19.42;15.40;;;;;;;19.63;100.00;99889.84;4940658;29;20553;-78
2021/06/30 07:53:23;;;;;;;19.60;14.65;;;;;;;19.78;100.00;99888.03;4957576;28;20442;-78
2021/06/30 07:55:48;;;;;;;20.13;14.13;;;;;;;20.27;100.00;99886.47;4957543;29;20035;-78
2021/06/30 07:58:16;;;;;;;16.45;13.45;;;;;;;21.92;93.25;99887.69;4957807;29;20030;-78
2021/06/30 08:00:41;;;;;;;16.90;12.73;;;;;;;22.26;91.37;99883.31;4957513;29;20034;-78
2021/06/30 08:03:07;;;;;;;17.85;13.43;;;;;;;21.64;92.85;99888.06;4957649;28;20019;-78
2021/06/30 08:05:33;;;;;;;17.83;13.20;;;;;;;20.61;100.00;99893.72;4957450;29;20431;-78
2021/06/30 08:07:58;;;;;;;18.95;14.20;;;;;;;20.22;100.00;99890.25;4940531;29;20399;-78
2021/06/30 08:10:24;;;;;;;18.35;14.27;;;;;;;19.82;100.00;99897.38;4957523;29;20028;-78
2021/06/30 08:12:49;;;;;;;19.75;15.20;;;;;;;19.50;100.00;99895.09;4957597;28;20372;-78
2021/06/30 08:15:15;;;;;;;20.15;16.05;;;;;;;19.18;100.00;99898.97;4957568;29;20046;-78
2021/06/30 08:17:40;;;;;;;19.88;15.00;;;;;;;19.09;100.00;99896.00;4940064;29;20435;-78
2021/06/30 08:20:06;;;;;;;19.65;14.45;;;;;;;19.14;100.00;99900.94;4940017;29;20027;-78
2021/06/30 08:22:33;;;;;;;21.23;15.82;;;;;;;19.18;100.00;99898.97;4939906;29;20023;-78
2021/06/30 08:24:58;;;;;;;19.30;14.55;;;;;;;19.39;100.00;99902.00;4939993;29;20029;-78
2021/06/30 08:27:23;;;;;;;18.15;14.75;;;;;;;19.33;100.00;99890.06;4957425;29;20106;-78
2021/06/30 08:29:49;;;;;;;19.25;15.25;;;;;;;19.38;100.00;99895.91;4939927;29;20034;-78
2021/06/30 08:32:15;;;;;;;21.25;15.30;;;;;;;19.45;100.00;99891.06;4957365;28;20464;-79
2021/06/30 08:34:41;;;;;;;19.80;14.60;;;;;;;19.72;100.00;99891.06;4939801;29;20076;-79
2021/06/30 08:37:07;;;;;;;17.73;14.73;;;;;;;19.93;100.00;99897.50;4939636;28;20078;-79
2021/06/30 08:39:33;;;;;;;19.70;16.02;;;;;;;20.47;100.00;99891.16;4956618;29;20110;-79
2021/06/30 08:41:58;;;;;;;19.33;14.32;;;;;;;20.86;100.00;99892.81;4956794;29;20118;-79
2021/06/30 08:44:24;;;;;;;19.55;14.57;;;;;;;21.11;100.00;99898.94;4956780;28;20066;-79
2021/06/30 08:46:51;;;;;;;19.13;14.63;;;;;;;21.28;98.19;99903.00;4956921;29;20031;-78
2021/06/30 08:49:23;;;;;;;21.23;15.13;;;;;;;21.41;98.85;99901.19;4956898;29;20059;-78
2021/06/30 08:51:50;;;;;;;16.60;14.20;;;;;;;20.84;99.60;99901.78;4939650;29;20537;-78
2021/06/30 08:54:18;;;;;;;22.42;14.05;;;;;;;21.10;99.96;99900.75;4956730;28;20026;-78
2021/06/30 08:56:44;;;;;;;17.05;13.18;;;;;;;21.47;96.10;99902.53;4956805;29;20038;-78
2021/06/30 08:59:09;;;;;;;16.85;13.30;;;;;;;21.51;97.00;99903.97;4956777;29;20031;-78
2021/06/30 09:01:34;;;;;;;17.23;12.77;;;;;;;21.09;97.10;99903.50;4939328;29;20027;-78
2021/06/30 09:04:00;;;;;;;18.40;13.45;;;;;;;20.88;96.84;99898.00;4956697;28;20050;-78
2021/06/30 09:06:28;;;;;;;16.17;12.95;;;;;;;20.53;100.00;99897.84;4956603;29;20435;-78
2021/06/30 09:08:56;;;;;;;18.50;12.73;;;;;;;20.38;100.00;99897.94;4939361;29;20031;-78
2021/06/30 09:11:29;;;;;;;15.48;12.85;;;;;;;20.50;100.00;99905.94;4939269;29;20033;-78
2021/06/30 09:14:09;;;;;;;15.52;11.90;;;;;;;20.33;99.82;99902.69;4956684;28;20034;-78
2021/06/30 09:17:03;;;;;;;17.85;12.50;;;;;;;20.43;100.00;99902.88;4956481;29;20154;-78
2021/06/30 09:19:48;;;;;;;15.48;12.93;;;;;;;20.25;100.00;99915.53;4956666;29;20030;-78
2021/06/30 09:22:14;;;;;;;18.13;12.88;;;;;;;20.50;100.00;99906.75;4939258;28;20070;-78
2021/06/30 09:24:39;;;;;;;15.68;12.27;;;;;;;20.50;100.00;99903.28;4956478;29;20034;-78
2021/06/30 09:27:05;;;;;;;18.27;13.60;;;;;;;20.76;98.40;99904.13;4956417;29;20027;-78
2021/06/30 09:29:31;;;;;;;16.65;12.90;;;;;;;20.56;99.78;99902.91;4956388;29;20147;-78
2021/06/30 09:31:56;;;;;;;20.00;12.95;;;;;;;20.62;100.00;99907.72;4939166;29;20019;-79
2021/06/30 09:34:26;;;;;;;18.20;13.43;;;;;;;21.08;98.86;99913.19;4956241;28;20031;-79
2021/06/30 09:36:58;;;;;;;17.30;13.55;;;;;;;21.27;94.86;99909.22;4956108;29;20072;-79
2021/06/30 09:39:24;;;;;;;18.52;11.35;;;;;;;21.18;95.70;99908.09;4956563;29;20472;-79
2021/06/30 09:42:00;;;;;;;15.05;11.45;;;;;;;21.35;93.92;99910.38;4938778;29;20035;-78
2021/06/30 09:44:25;;;;;;;18.52;11.27;;;;;;;21.28;94.92;99916.19;4955862;28;20035;-79
2021/06/30 09:46:55;;;;;;;15.57;11.82;;;;;;;21.46;95.50;99916.66;4938686;29;20020;-79
2021/06/30 09:49:21;;;;;;;17.67;11.57;;;;;;;21.83;92.00;99920.06;4938525;29;20118;-79
2021/06/30 09:52:04;;;;;;;15.88;12.50;;;;;;;20.90;96.02;99914.53;4956013;29;20027;-79
2021/06/30 09:54:31;;;;;;;17.88;11.60;;;;;;;20.99;97.95;99923.56;4938549;29;20480;-79
2021/06/30 09:57:03;;;;;;;16.75;11.68;;;;;;;20.91;96.71;99924.13;4938499;29;20399;-79
2021/06/30 09:59:36;;;;;;;16.25;11.25;;;;;;;21.44;95.17;99926.50;4938338;29;20027;-79
2021/06/30 10:02:08;;;;;;;19.67;12.07;;;;;;;21.14;96.68;99917.19;4938213;29;20027;-79
2021/06/30 10:04:37;;;;;;;19.02;12.10;;;;;;;21.13;95.62;99920.78;4938399;29;20035;-78
2021/06/30 10:07:13;;;;;;;19.50;12.10;;;;;;;21.50;92.83;99921.59;4938328;29;20035;-79
2021/06/30 10:09:56;;;;;;;17.17;12.00;;;;;;;20.82;96.21;99928.25;4956340;29;20027;-80
2021/06/30 10:12:27;;;;;;;22.55;12.70;;;;;;;20.96;96.06;99923.78;4939943;28;20480;-79
2021/06/30 10:14:53;;;;;;;19.73;12.45;;;;;;;21.41;93.96;99924.09;4938461;29;20388;-79
2021/06/30 10:17:20;;;;;;;20.52;11.70;;;;;;;21.35;94.53;99925.34;4938186;29;20027;-79
2021/06/30 10:19:47;;;;;;;15.98;10.85;;;;;;;21.40;95.91;99925.03;4955501;29;20023;-79
2021/06/30 10:22:14;;;;;;;18.13;11.45;;;;;;;21.30;94.92;99928.31;4938108;28;20037;-79
2021/06/30 10:24:40;;;;;;;18.75;11.75;;;;;;;21.23;97.06;99929.72;4955438;29;20031;-79
2021/06/30 10:27:06;;;;;;;19.92;11.32;;;;;;;20.86;95.40;99927.09;4938130;29;20122;-79
2021/06/30 10:29:34;;;;;;;16.25;10.52;;;;;;;20.58;95.17;99914.19;4938698;29;20110;-78
2021/06/30 10:32:07;;;;;;;15.88;10.52;;;;;;;21.02;94.56;99915.44;4955393;29;20030;-78
2021/06/30 10:34:43;;;;;;;16.98;10.65;;;;;;;21.13;95.39;99910.25;4938205;29;20031;-79
2021/06/30 10:37:37;;;;;;;16.75;10.48;;;;;;;21.62;92.61;99913.75;4938033;29;20031;-79
2021/06/30 10:40:02;;;;;;;16.45;9.93;;;;;;;22.07;90.94;99909.41;4935334;29;20031;-79
2021/06/30 10:42:34;;;;;;;12.37;9.27;;;;;;;22.45;85.12;99901.22;4937889;29;20597;-79
2021/06/30 10:45:13;;;;;;;15.73;8.77;;;;;;;22.86;83.54;99904.16;4938062;29;20089;-79
2021/06/30 10:47:47;;;;;;;14.20;7.90;;;;;;;22.93;83.79;99900.06;4955172;29;20372;-79
2021/06/30 10:50:35;;;;;;;17.33;9.95;;;;;;;22.88;82.58;99897.81;4937973;29;20055;-79
2021/06/30 10:53:03;;;;;;;15.60;10.50;;;;;;;22.17;85.69;99902.50;4954971;28;20067;-78
2021/06/30 10:55:38;;;;;;;13.55;9.07;;;;;;;22.21;86.84;99900.47;4955051;29;20031;-78
2021/06/30 10:58:19;;;;;;;16.83;10.05;;;;;;;22.19;86.70;99884.72;4937957;29;20034;-79
2021/06/30 11:00:54;;;;;;;16.13;9.10;;;;;;;22.86;83.78;99880.38;4938669;29;20039;-79
2021/06/30 11:04:02;;;;;;;15.50;8.77;;;;;;;23.06;80.55;99884.06;4959051;28;20451;-79
2021/06/30 11:06:29;;;;;;;15.52;9.52;;;;;;;22.65;83.90;99872.34;4902860;29;20056;-79
2021/06/30 11:09:05;;;;;;;17.80;9.38;;;;;;;22.21;84.61;99877.53;4918892;29;20039;-79
2021/06/30 11:11:33;;;;;;;12.82;8.82;;;;;;;22.18;84.44;99880.41;4941962;29;20027;-79
2021/06/30 11:14:12;;;;;;;16.60;10.60;;;;;;;21.77;87.24;99887.03;4959304;28;20034;-79
2021/06/30 11:16:37;;;;;;;13.13;9.23;;;;;;;21.80;88.27;99884.16;4959161;29;20030;-79
2021/06/30 11:19:07;;;;;;;14.55;9.68;;;;;;;21.51;90.62;99882.88;4958721;29;20023;-79
2021/06/30 11:21:45;;;;;;;16.05;9.35;;;;;;;21.27;90.36;99883.69;4958795;29;20411;-79
2021/06/30 11:24:39;;;;;;;13.77;9.27;;;;;;;21.29;90.14;99887.06;4941375;29;20031;-79
2021/06/30 11:27:07;;;;;;;14.95;9.82;;;;;;;21.40;89.73;99880.16;4941998;29;20027;-79
2021/06/30 11:29:42;;;;;;;18.85;8.98;;;;;;;21.46;89.94;99883.22;4941340;29;20145;-79
2021/06/30 11:32:09;;;;;;;14.77;9.40;;;;;;;21.07;91.49;99884.31;4958374;28;20015;-79
2021/06/30 11:34:39;;;;;;;14.45;8.88;;;;;;;21.30;90.90;99896.66;4958371;29;20050;-79
2021/06/30 11:37:06;;;;;;;17.48;9.07;;;;;;;21.37;88.37;99892.66;4941660;29;20063;-80
2021/06/30 11:39:31;;;;;;;13.50;9.48;;;;;;;21.10;89.84;99889.38;4958826;29;20459;-80
2021/06/30 11:41:57;;;;;;;15.50;9.13;;;;;;;20.70;91.96;99900.13;4959196;29;20047;-80
2021/06/30 11:44:37;;;;;;;14.55;9.25;;;;;;;20.60;93.05;99905.22;4941848;29;20027;-80
2021/06/30 11:47:04;;;;;;;17.35;9.13;;;;;;;20.75;92.51;99903.31;4942098;29;20395;-81
2021/06/30 11:49:30;;;;;;;14.68;9.80;;;;;;;20.82;94.11;99895.78;4958775;29;20121;-80
2021/06/30 11:51:59;;;;;;;17.60;10.00;;;;;;;21.32;91.50;99907.94;4959153;29;20058;-81
2021/06/30 11:54:27;;;;;;;16.60;11.25;;;;;;;20.92;91.14;99910.81;4941433;29;20031;-81
2021/06/30 11:56:55;;;;;;;16.85;10.80;;;;;;;21.42;89.98;99908.13;4959019;29;20033;-81
2021/06/30 11:59:23;;;;;;;17.02;11.45;;;;;;;21.29;92.07;99913.44;4959339;29;20451;-80
2021/06/30 12:01:50;;;;;;;21.83;11.98;;;;;;;20.64;94.58;99922.50;4959416;29;20475;-81
2021/06/30 12:04:21;;;;;;;22.80;11.82;;;;;;;20.65;96.38;99928.59;4959809;28;20399;-81
2021/06/30 12:06:48;;;;;;;18.40;13.15;;;;;;;20.22;98.33;99928.91;4941988;29;20031;-80
2021/06/30 12:09:19;;;;;;;23.13;13.40;;;;;;;20.32;98.78;99929.13;4941644;29;20074;-81
2021/06/30 12:11:56;;;;;;;19.00;12.65;;;;;;;20.27;99.67;99937.34;4941271;28;20538;-80
2021/06/30 12:14:29;;;;;;;20.98;12.90;;;;;;;20.15;100.00;99928.50;4940288;29;20126;-79
2021/06/30 12:17:04;;;;;;;19.10;12.77;;;;;;;20.17;100.00;99931.03;4958050;29;20027;-79
2021/06/30 12:19:51;;;;;;;18.80;12.60;;;;;;;20.57;99.39;99917.78;4957445;29;20063;-79